createdAt,value
2023-07-20T00:00:32.589Z,99456.99
2023-07-20T00:03:24.004Z,99448.27
2023-07-20T00:05:52.600Z,99445.45
2023-07-20T00:08:20.359Z,99447.21
2023-07-20T00:10:47.949Z,99449.23
2023-07-20T00:13:16.937Z,99454.27
2023-07-20T00:15:44.419Z,99456.39
2023-07-20T00:18:11.921Z,99453.20
2023-07-20T00:20:39.528Z,99450.77
2023-07-20T00:23:07.465Z,99451.67
2023-07-20T00:25:36.176Z,99453.51
2023-07-20T00:28:03.749Z,99453.16
2023-07-20T00:30:31.265Z,99454.58
2023-07-20T00:32:58.940Z,99451.91
2023-07-20T00:35:26.444Z,99448.20
2023-07-20T00:37:54.276Z,99441.80
2023-07-20T00:40:22.454Z,99446.41
2023-07-20T00:42:50.958Z,99447.27
2023-07-20T00:45:29.320Z,99447.90
2023-07-20T00:47:58.539Z,99449.89
2023-07-20T00:50:27.232Z,99456.35
2023-07-20T00:52:57.757Z,99455.05
2023-07-20T00:55:26.186Z,99456.42
2023-07-20T00:57:54.570Z,99456.06
2023-07-20T01:00:22.127Z,99448.34
2023-07-20T01:02:49.757Z,99448.02
2023-07-20T01:05:17.707Z,99445.05
2023-07-20T01:08:00.000Z,99452.42
2023-07-20T01:10:50.920Z,99449.42
2023-07-20T01:13:20.116Z,99456.02
2023-07-20T01:15:52.449Z,99447.68
2023-07-20T01:18:20.028Z,99450.39
2023-07-20T01:20:47.996Z,99450.52
2023-07-20T01:23:43.237Z,99445.77
2023-07-20T01:26:42.807Z,99439.88
2023-07-20T01:29:29.443Z,99428.04
2023-07-20T01:31:58.452Z,99426.89
2023-07-20T01:34:27.812Z,99434.55
2023-07-20T01:36:57.421Z,99438.05
2023-07-20T01:39:25.288Z,99443.66
2023-07-20T01:41:53.773Z,99442.92
2023-07-20T01:44:21.265Z,99444.62
2023-07-20T01:46:48.764Z,99452.66
2023-07-20T01:49:16.754Z,99457.73
2023-07-20T01:51:45.682Z,99463.23
2023-07-20T01:54:13.458Z,99466.73
2023-07-20T01:56:40.939Z,99469.09
2023-07-20T01:59:08.680Z,99464.52
2023-07-20T02:01:36.236Z,99455.09
2023-07-20T02:04:03.949Z,99444.36
2023-07-20T02:06:31.446Z,99444.36
2023-07-20T02:08:59.947Z,99444.30
2023-07-20T02:11:27.438Z,99445.48
2023-07-20T02:13:55.019Z,99447.36
2023-07-20T02:16:24.558Z,99443.79
2023-07-20T02:18:53.640Z,99443.21
2023-07-20T02:21:21.349Z,99441.48
2023-07-20T02:23:49.890Z,99440.13
2023-07-20T02:26:17.446Z,99441.59
2023-07-20T02:28:44.944Z,99445.38
2023-07-20T02:31:13.822Z,99450.34
2023-07-20T02:33:41.797Z,99452.65
2023-07-20T02:36:09.308Z,99450.14
2023-07-20T02:38:36.836Z,99451.96
2023-07-20T02:41:04.406Z,99459.77
2023-07-20T02:43:32.016Z,99460.42
2023-07-20T02:45:59.951Z,99464.35
2023-07-20T02:48:27.465Z,99457.24
2023-07-20T02:50:54.955Z,99457.46
2023-07-20T02:53:22.526Z,99460.00
2023-07-20T02:55:50.036Z,99468.77
2023-07-20T02:58:17.865Z,99474.59
2023-07-20T03:00:45.468Z,99478.27
2023-07-20T03:03:13.204Z,99485.04
2023-07-20T03:05:43.800Z,99482.18
2023-07-20T03:08:11.671Z,99487.13
2023-07-20T03:10:42.505Z,99482.64
2023-07-20T03:13:10.088Z,99477.61
2023-07-20T03:15:37.704Z,99476.52
2023-07-20T03:18:05.630Z,99475.52
2023-07-20T03:20:33.331Z,99476.38
2023-07-20T03:23:01.029Z,99478.55
2023-07-20T03:25:29.080Z,99488.46
2023-07-20T03:27:56.776Z,99490.03
2023-07-20T03:30:24.475Z,99486.73
2023-07-20T03:32:52.525Z,99485.16
2023-07-20T03:35:20.201Z,99487.42
2023-07-20T03:37:47.705Z,99486.95
2023-07-20T03:40:16.046Z,99484.96
2023-07-20T03:42:43.609Z,99485.33
2023-07-20T03:45:11.517Z,99485.78
2023-07-20T03:47:39.136Z,99485.67
2023-07-20T03:50:07.755Z,99498.50
2023-07-20T03:52:35.249Z,99501.98
2023-07-20T03:55:03.286Z,99506.77
2023-07-20T03:57:33.344Z,99503.02
2023-07-20T04:00:01.175Z,99493.27
2023-07-20T04:02:29.027Z,99494.11
2023-07-20T04:04:56.553Z,99495.73
2023-07-20T04:07:24.082Z,99493.91
2023-07-20T04:09:51.615Z,99495.09
2023-07-20T04:12:19.166Z,99489.78
2023-07-20T04:14:46.657Z,99493.35
2023-07-20T04:17:14.372Z,99496.88
2023-07-20T04:19:41.941Z,99496.07
2023-07-20T04:22:09.477Z,99499.90
2023-07-20T04:24:37.088Z,99491.39
2023-07-20T04:27:05.333Z,99492.69
2023-07-20T04:29:32.883Z,99490.69
2023-07-20T04:32:00.399Z,99488.77
2023-07-20T04:34:27.944Z,99487.25
2023-07-20T04:36:55.833Z,99480.45
2023-07-20T04:39:31.475Z,99484.27
2023-07-20T04:42:05.768Z,99479.98
2023-07-20T04:44:33.328Z,99479.39
2023-07-20T04:47:01.415Z,99486.22
2023-07-20T04:49:31.223Z,99488.81
2023-07-20T04:51:58.969Z,99491.75
2023-07-20T04:54:28.091Z,99491.54
2023-07-20T04:56:55.623Z,99488.64
2023-07-20T04:59:24.020Z,99490.92
2023-07-20T05:01:51.838Z,99491.98
2023-07-20T05:04:19.675Z,99484.48
2023-07-20T05:06:47.893Z,99481.20
2023-07-20T05:09:15.611Z,99483.59
2023-07-20T05:11:43.139Z,99486.54
2023-07-20T05:14:10.730Z,99485.00
2023-07-20T05:16:39.216Z,99484.36
2023-07-20T05:19:07.924Z,99483.95
2023-07-20T05:21:35.542Z,99482.79
2023-07-20T05:24:03.108Z,99489.29
2023-07-20T05:26:30.658Z,99494.59
2023-07-20T05:28:58.130Z,99498.04
2023-07-20T05:31:27.263Z,99494.17
2023-07-20T05:33:54.946Z,99493.07
2023-07-20T05:36:22.887Z,99495.17
2023-07-20T05:38:50.768Z,99493.46
2023-07-20T05:41:18.259Z,99486.34
2023-07-20T05:43:45.947Z,99482.08
2023-07-20T05:46:13.739Z,99485.07
2023-07-20T05:48:41.457Z,99485.83
2023-07-20T05:51:09.046Z,99484.98
2023-07-20T05:53:37.114Z,99487.58
2023-07-20T05:56:04.981Z,99488.66
2023-07-20T05:58:32.960Z,99485.94
2023-07-20T06:01:00.524Z,99488.17
2023-07-20T06:03:28.463Z,99490.23
2023-07-20T06:06:00.658Z,99490.02
2023-07-20T06:08:29.918Z,99482.18
2023-07-20T06:10:58.158Z,99477.90
2023-07-20T06:13:26.088Z,99482.83
2023-07-20T06:15:54.449Z,99476.96
2023-07-20T06:18:25.056Z,99483.48
2023-07-20T06:20:53.284Z,99482.57
2023-07-20T06:23:20.886Z,99484.98
2023-07-20T06:25:48.943Z,99484.38
2023-07-20T06:28:16.534Z,99480.23
2023-07-20T06:30:44.148Z,99481.70
2023-07-20T06:33:11.780Z,99484.56
2023-07-20T06:35:44.009Z,99490.52
2023-07-20T06:40:42.213Z,99494.32
2023-07-20T06:45:40.210Z,99496.75
2023-07-20T06:48:08.036Z,99492.86
2023-07-20T06:50:35.583Z,99496.24
2023-07-20T06:53:05.024Z,99499.78
2023-07-20T06:55:40.116Z,99499.84
2023-07-20T06:58:08.857Z,99496.66
2023-07-20T07:00:36.323Z,99501.58
2023-07-20T07:03:03.939Z,99501.19
2023-07-20T07:05:35.371Z,99500.60
2023-07-20T07:08:05.061Z,99502.91
2023-07-20T07:10:33.810Z,99505.89
2023-07-20T07:13:01.425Z,99502.81
2023-07-20T07:15:28.966Z,99505.80
2023-07-20T07:17:57.635Z,99503.31
2023-07-20T07:20:25.689Z,99505.98
2023-07-20T07:22:54.081Z,99502.23
2023-07-20T07:25:23.826Z,99499.84
2023-07-20T07:27:53.720Z,99500.25
2023-07-20T07:30:21.324Z,99497.73
2023-07-20T07:32:49.297Z,99505.31
2023-07-20T07:35:17.009Z,99500.91
2023-07-20T07:37:57.127Z,99497.09
2023-07-20T07:40:31.819Z,99498.19
2023-07-20T07:42:59.330Z,99497.48
2023-07-20T07:45:26.881Z,99494.52
2023-07-20T07:47:54.709Z,99493.14
2023-07-20T07:50:22.380Z,99493.98
2023-07-20T07:52:49.900Z,99490.27
2023-07-20T07:55:18.767Z,99497.40
2023-07-20T07:57:48.397Z,99496.45
2023-07-20T08:00:19.744Z,99503.91
2023-07-20T08:02:50.075Z,99499.78
2023-07-20T08:05:18.291Z,99498.89
2023-07-20T08:07:46.307Z,99494.06
2023-07-20T08:10:13.973Z,99500.14
2023-07-20T08:12:41.526Z,99498.55
2023-07-20T08:15:11.949Z,99500.83
2023-07-20T08:17:39.586Z,99500.44
2023-07-20T08:20:08.051Z,99503.83
2023-07-20T08:22:35.542Z,99502.10
2023-07-20T08:25:03.146Z,99500.14
2023-07-20T08:27:30.798Z,99498.62
2023-07-20T08:30:00.326Z,99492.88
2023-07-20T08:32:28.418Z,99494.43
2023-07-20T08:34:56.034Z,99495.08
2023-07-20T08:37:23.782Z,99491.18
2023-07-20T08:39:51.343Z,99489.45
2023-07-20T08:42:18.932Z,99484.95
2023-07-20T08:44:50.016Z,99485.79
2023-07-20T08:47:18.275Z,99479.89
2023-07-20T08:49:49.733Z,99481.36
2023-07-20T08:52:17.293Z,99481.40
2023-07-20T08:54:45.075Z,99485.27
2023-07-20T08:57:15.743Z,99482.42
2023-07-20T08:59:45.049Z,99479.59
2023-07-20T09:02:19.359Z,99476.27
2023-07-20T09:04:47.941Z,99481.20
2023-07-20T09:07:16.839Z,99484.23
2023-07-20T09:09:44.377Z,99489.23
2023-07-20T09:12:16.969Z,99486.34
2023-07-20T09:14:45.760Z,99481.42
2023-07-20T09:17:18.604Z,99482.85
2023-07-20T09:19:48.261Z,99472.80
2023-07-20T09:22:15.800Z,99475.27
2023-07-20T09:24:44.789Z,99471.98
2023-07-20T09:27:12.523Z,99476.80
2023-07-20T09:29:58.201Z,99475.47
2023-07-20T09:32:26.384Z,99468.39
2023-07-20T09:34:54.574Z,99468.35
2023-07-20T09:37:25.984Z,99457.02
2023-07-20T09:44:57.696Z,99447.34
2023-07-20T09:47:28.453Z,99425.48
2023-07-20T09:55:06.531Z,99425.91
2023-07-20T09:57:35.714Z,99416.92
2023-07-20T10:02:45.690Z,99408.03
2023-07-20T10:05:15.271Z,99414.36
2023-07-20T10:07:49.025Z,99408.59
2023-07-20T10:10:18.564Z,99396.06
2023-07-20T10:12:49.429Z,99403.26
2023-07-20T10:15:31.974Z,99398.52
2023-07-20T10:18:18.745Z,99392.73
2023-07-20T10:23:18.394Z,99383.58
2023-07-20T10:25:47.877Z,99385.78
2023-07-20T10:28:15.741Z,99380.05
2023-07-20T10:30:44.122Z,99356.14
2023-07-20T10:33:12.105Z,99365.60
2023-07-20T10:35:56.839Z,99359.96
2023-07-20T10:38:46.466Z,99344.52
2023-07-20T10:41:17.925Z,99329.65
2023-07-20T10:43:46.636Z,99352.14
2023-07-20T10:46:14.796Z,99332.21
2023-07-20T10:49:05.367Z,99330.05
2023-07-20T10:51:41.780Z,99327.52
2023-07-20T10:54:29.795Z,99327.21
2023-07-20T10:56:59.248Z,99309.62
2023-07-20T10:59:32.663Z,99293.73
2023-07-20T11:02:02.477Z,99306.44
2023-07-20T11:04:47.175Z,99305.94
2023-07-20T11:07:38.277Z,99301.08
2023-07-20T11:10:22.899Z,99299.78
2023-07-20T11:13:23.418Z,99303.48
2023-07-20T11:15:57.203Z,99302.73
2023-07-20T11:18:28.224Z,99299.50
2023-07-20T11:20:56.464Z,99302.33
2023-07-20T11:23:23.977Z,99297.22
2023-07-20T11:25:51.688Z,99285.25
2023-07-20T11:28:19.310Z,99289.86
2023-07-20T11:30:53.307Z,99284.04
2023-07-20T11:33:20.875Z,99293.89
2023-07-20T11:35:51.897Z,99293.64
2023-07-20T11:38:19.534Z,99292.84
2023-07-20T11:40:47.827Z,99295.45
2023-07-20T11:45:46.878Z,99296.94
2023-07-20T11:48:17.858Z,99290.98
2023-07-20T11:50:46.035Z,99296.28
2023-07-20T11:53:14.925Z,99300.08
2023-07-20T11:55:43.125Z,99291.08
2023-07-20T11:58:11.423Z,99284.59
2023-07-20T12:00:40.927Z,99277.34
2023-07-20T12:03:08.959Z,99275.36
2023-07-20T12:05:55.493Z,99280.56
2023-07-20T12:08:26.459Z,99278.71
2023-07-20T12:10:54.035Z,99283.21
2023-07-20T12:13:21.774Z,99280.64
2023-07-20T12:15:49.273Z,99278.25
2023-07-20T12:18:16.778Z,99288.04
2023-07-20T12:20:44.954Z,99280.16
2023-07-20T12:23:14.272Z,99287.38
2023-07-20T12:25:44.252Z,99294.77
2023-07-20T12:28:17.932Z,99292.19
2023-07-20T12:30:46.629Z,99293.35
2023-07-20T12:33:16.680Z,99292.08
2023-07-20T12:35:44.739Z,99289.14
2023-07-20T12:38:12.429Z,99294.08
2023-07-20T12:40:41.428Z,99297.36
2023-07-20T12:43:09.195Z,99300.27
2023-07-20T12:45:37.067Z,99292.30
2023-07-20T12:48:04.868Z,99301.71
2023-07-20T12:50:32.678Z,99304.80
2023-07-20T12:53:00.658Z,99305.41
2023-07-20T12:55:28.513Z,99313.36
2023-07-20T12:57:56.390Z,99305.14
2023-07-20T13:00:24.051Z,99304.85
2023-07-20T13:03:08.967Z,99290.23
2023-07-20T13:10:39.821Z,99334.95
2023-07-20T13:13:08.072Z,99375.96
2023-07-20T13:15:43.641Z,99403.67
2023-07-20T13:18:11.691Z,99457.52
2023-07-20T13:20:39.207Z,99460.02
2023-07-20T13:23:06.857Z,99488.47
2023-07-20T13:25:34.441Z,99481.83
2023-07-20T13:28:01.947Z,99484.01
2023-07-20T13:30:29.452Z,99476.70
2023-07-20T13:32:57.039Z,99481.84
2023-07-20T13:35:24.671Z,99494.22
2023-07-20T13:37:53.016Z,99505.75
2023-07-20T13:40:20.751Z,99493.29
2023-07-20T13:42:48.310Z,99496.65
2023-07-20T13:45:16.222Z,99501.20
2023-07-20T13:47:46.947Z,99507.62
2023-07-20T13:52:45.597Z,99520.34
2023-07-20T13:55:13.165Z,99522.38
2023-07-20T14:00:12.061Z,99526.86
2023-07-20T14:07:41.555Z,99543.05
2023-07-20T14:12:39.681Z,99543.13
2023-07-20T14:15:08.060Z,99540.56
2023-07-20T14:17:36.120Z,99538.40
2023-07-20T14:20:23.474Z,99542.26
2023-07-20T14:22:52.125Z,99538.83
2023-07-20T14:25:20.714Z,99540.65
2023-07-20T14:27:48.369Z,99525.52
2023-07-20T14:30:15.881Z,99514.53
2023-07-20T14:32:44.771Z,99504.14
2023-07-20T14:35:12.433Z,99493.87
2023-07-20T14:37:40.039Z,99483.35
2023-07-20T14:40:09.410Z,99481.27
2023-07-20T14:42:37.105Z,99469.22
2023-07-20T14:45:06.480Z,99457.83
2023-07-20T14:47:36.251Z,99447.70
2023-07-20T14:50:05.743Z,99443.30
2023-07-20T14:52:33.276Z,99440.19
2023-07-20T14:55:01.054Z,99431.50
2023-07-20T14:57:28.802Z,99424.81
2023-07-20T14:59:56.534Z,99410.14
2023-07-20T15:02:24.190Z,99411.00
2023-07-20T15:04:52.478Z,99413.85
2023-07-20T15:07:22.536Z,99422.29
2023-07-20T15:09:50.907Z,99421.91
2023-07-20T15:12:18.470Z,99421.60
2023-07-20T15:15:03.464Z,99431.28
2023-07-20T15:17:31.015Z,99431.84
2023-07-20T15:19:59.396Z,99423.76
2023-07-20T15:22:27.247Z,99428.41
2023-07-20T15:24:55.066Z,99424.94
2023-07-20T15:27:22.925Z,99419.42
2023-07-20T15:29:51.158Z,99422.30
2023-07-20T15:32:18.995Z,99435.91
2023-07-20T15:34:47.409Z,99437.97
2023-07-20T15:37:14.932Z,99433.15
2023-07-20T15:39:42.600Z,99440.81
2023-07-20T15:42:10.426Z,99455.02
2023-07-20T15:44:38.226Z,99455.98
2023-07-20T15:47:09.150Z,99458.96
2023-07-20T15:49:37.822Z,99454.91
2023-07-20T15:52:08.066Z,99455.59
2023-07-20T15:54:35.939Z,99451.64
2023-07-20T15:57:04.778Z,99459.41
2023-07-20T15:59:32.413Z,99470.75
2023-07-20T16:02:01.135Z,99476.48
2023-07-20T16:04:28.752Z,99476.79
2023-07-20T16:06:56.207Z,99474.67
2023-07-20T16:09:23.855Z,99471.17
2023-07-20T16:14:19.630Z,99475.73
2023-07-20T16:16:47.187Z,99478.27
2023-07-20T16:19:15.171Z,99484.42
2023-07-20T16:21:43.040Z,99489.95
2023-07-20T16:24:11.651Z,99494.24
2023-07-20T16:26:44.614Z,99494.95
2023-07-20T16:34:15.153Z,99500.83
2023-07-20T16:44:15.169Z,99526.96
2023-07-20T16:49:14.132Z,99533.17
2023-07-20T16:51:41.784Z,99533.23
2023-07-20T16:54:09.888Z,99527.20
2023-07-20T16:56:37.446Z,99531.57
2023-07-20T16:59:05.126Z,99519.72
2023-07-20T17:01:34.178Z,99522.40
2023-07-20T17:04:02.460Z,99528.52
2023-07-20T17:06:30.563Z,99533.80
2023-07-20T17:09:01.137Z,99535.20
2023-07-20T17:11:28.765Z,99539.65
2023-07-20T17:13:56.278Z,99545.60
2023-07-20T17:16:23.998Z,99544.58
2023-07-20T17:18:51.607Z,99543.55
2023-07-20T17:21:20.475Z,99545.88
2023-07-20T17:28:51.791Z,99549.84
2023-07-20T17:31:21.130Z,99543.77
2023-07-20T17:33:48.955Z,99541.42
2023-07-20T17:38:49.137Z,99544.16
2023-07-20T17:41:16.900Z,99544.48
2023-07-20T17:43:44.604Z,99542.44
2023-07-20T17:48:43.465Z,99546.01
2023-07-20T17:51:11.274Z,99549.49
2023-07-20T17:53:38.828Z,99548.78
2023-07-20T17:56:06.855Z,99552.44
2023-07-20T17:58:34.859Z,99557.48
2023-07-20T18:01:02.474Z,99556.98
2023-07-20T18:03:30.256Z,99556.73
2023-07-20T18:06:05.378Z,99560.29
2023-07-20T18:08:32.960Z,99566.67
2023-07-20T18:11:08.237Z,99560.60
2023-07-20T18:13:36.395Z,99559.95
2023-07-20T18:16:04.040Z,99553.94
2023-07-20T18:18:31.770Z,99549.69
2023-07-20T18:20:59.269Z,99551.21
2023-07-20T18:23:26.876Z,99552.73
2023-07-20T18:25:54.426Z,99557.37
2023-07-20T18:28:22.025Z,99555.57
2023-07-20T18:30:49.653Z,99561.69
2023-07-20T18:33:17.691Z,99562.48
2023-07-20T18:35:45.554Z,99567.23
2023-07-20T18:38:14.355Z,99569.48
2023-07-20T18:40:42.017Z,99570.61
2023-07-20T18:43:09.643Z,99572.50
2023-07-20T18:45:37.165Z,99573.45
2023-07-20T18:48:04.825Z,99574.64
2023-07-20T18:50:32.876Z,99576.16
2023-07-20T18:53:01.425Z,99579.74
2023-07-20T18:55:29.211Z,99577.14
2023-07-20T18:57:56.729Z,99579.45
2023-07-20T19:00:24.531Z,99580.92
2023-07-20T19:02:52.187Z,99584.95
2023-07-20T19:05:20.398Z,99587.60
2023-07-20T19:07:48.557Z,99596.45
2023-07-20T19:10:16.179Z,99604.90
2023-07-20T19:12:43.836Z,99606.68
2023-07-20T19:15:14.220Z,99605.09
2023-07-20T19:17:41.804Z,99611.19
2023-07-20T19:20:15.774Z,99619.04
2023-07-20T19:22:44.451Z,99621.11
2023-07-20T19:25:12.419Z,99621.90
2023-07-20T19:27:40.422Z,99623.59
2023-07-20T19:30:08.950Z,99630.29
2023-07-20T19:32:36.778Z,99630.99
2023-07-20T19:35:05.153Z,99631.55
2023-07-20T19:37:32.789Z,99635.26
2023-07-20T19:40:01.596Z,99638.62
2023-07-20T19:42:29.075Z,99639.23
2023-07-20T19:44:56.821Z,99643.14
2023-07-20T19:47:24.558Z,99647.46
2023-07-20T19:49:52.239Z,99648.75
2023-07-20T19:52:20.137Z,99644.95
2023-07-20T19:54:48.063Z,99651.23
2023-07-20T19:59:48.222Z,99642.21
2023-07-20T20:02:15.765Z,99646.35
2023-07-20T20:07:17.034Z,99649.89
2023-07-20T20:09:44.587Z,99650.09
2023-07-20T20:12:13.943Z,99649.59
2023-07-20T20:14:43.238Z,99651.70
2023-07-20T20:17:11.422Z,99653.34
2023-07-20T20:19:39.116Z,99653.84
2023-07-20T20:22:07.246Z,99656.86
2023-07-20T20:24:35.014Z,99662.59
2023-07-20T20:27:02.703Z,99665.04
2023-07-20T20:29:30.215Z,99664.95
2023-07-20T20:31:57.675Z,99665.56
2023-07-20T20:34:25.400Z,99657.19
2023-07-20T20:36:52.860Z,99655.60
2023-07-20T20:39:20.663Z,99662.86
2023-07-20T20:41:48.321Z,99662.83
2023-07-20T20:44:16.140Z,99663.11
2023-07-20T20:46:47.113Z,99667.98
2023-07-20T20:49:14.645Z,99668.43
2023-07-20T20:51:42.935Z,99670.64
2023-07-20T20:54:11.246Z,99669.11
2023-07-20T20:56:38.769Z,99671.96
2023-07-20T20:59:06.268Z,99677.96
2023-07-20T21:01:33.863Z,99681.14
2023-07-20T21:04:01.390Z,99682.02
2023-07-20T21:06:28.984Z,99683.09
2023-07-20T21:08:56.630Z,99685.69
2023-07-20T21:11:24.493Z,99685.04
2023-07-20T21:13:51.994Z,99687.95
2023-07-20T21:16:21.118Z,99695.34
2023-07-20T21:18:49.043Z,99694.90
2023-07-20T21:21:16.965Z,99692.16
2023-07-20T21:23:44.496Z,99692.26
2023-07-20T21:26:11.997Z,99689.70
2023-07-20T21:28:39.469Z,99690.79
2023-07-20T21:31:08.749Z,99687.50
2023-07-20T21:33:36.817Z,99695.27
2023-07-20T21:36:06.360Z,99699.56
2023-07-20T21:38:38.186Z,99702.03
2023-07-20T21:41:06.166Z,99710.67
2023-07-20T21:43:36.699Z,99710.98
2023-07-20T21:46:04.425Z,99708.66
2023-07-20T21:48:32.132Z,99709.66
2023-07-20T21:51:00.192Z,99710.93
2023-07-20T21:53:27.685Z,99711.63
2023-07-20T21:55:55.721Z,99719.40
2023-07-20T21:58:23.248Z,99721.34
2023-07-20T22:00:56.582Z,99721.31
2023-07-20T22:03:24.274Z,99723.58
2023-07-20T22:05:53.323Z,99723.77
2023-07-20T22:08:21.175Z,99724.22
2023-07-20T22:10:52.589Z,99726.74
2023-07-20T22:13:22.071Z,99724.89
2023-07-20T22:15:52.641Z,99728.67
2023-07-20T22:20:51.191Z,99731.20
2023-07-20T22:23:18.780Z,99735.67
2023-07-20T22:25:46.914Z,99735.84
2023-07-20T22:28:14.528Z,99733.67
2023-07-20T22:30:42.059Z,99736.35
2023-07-20T22:33:09.547Z,99738.71
2023-07-20T22:35:37.236Z,99735.52
2023-07-20T22:38:04.768Z,99735.38
2023-07-20T22:40:34.880Z,99734.66
2023-07-20T22:43:02.937Z,99736.53
2023-07-20T22:45:32.020Z,99735.70
2023-07-20T22:47:59.599Z,99734.57
2023-07-20T22:50:27.451Z,99728.21
2023-07-20T22:52:54.981Z,99730.04
2023-07-20T22:55:22.571Z,99727.08
2023-07-20T22:57:52.432Z,99728.21
2023-07-20T23:00:27.644Z,99725.84
2023-07-20T23:02:56.851Z,99726.52
2023-07-20T23:05:25.861Z,99729.81
2023-07-20T23:07:55.105Z,99727.81
2023-07-20T23:10:22.767Z,99731.49
2023-07-20T23:12:51.163Z,99730.63
2023-07-20T23:15:18.830Z,99732.85
2023-07-20T23:17:48.939Z,99734.77
2023-07-20T23:20:20.020Z,99735.02
2023-07-20T23:22:51.164Z,99733.25
2023-07-20T23:25:20.242Z,99738.38
2023-07-20T23:27:49.272Z,99736.70
2023-07-20T23:30:16.990Z,99735.83
2023-07-20T23:32:45.433Z,99742.55
2023-07-20T23:35:13.533Z,99747.63
2023-07-20T23:37:41.039Z,99750.79
2023-07-20T23:40:12.397Z,99751.73
2023-07-20T23:42:44.743Z,99750.44
2023-07-20T23:45:14.954Z,99755.79
2023-07-20T23:47:43.284Z,99757.54
2023-07-20T23:50:11.446Z,99754.01
2023-07-20T23:52:39.003Z,99757.04
2023-07-20T23:55:07.304Z,99756.36
2023-07-20T23:57:36.438Z,99757.27
